Time;durP1;ratioP1;P1;durP2;ratioP2;P2;SDS_P1;SDS_P2;PMS_P1;PMS_P2;Temp;Humidity;BMP_temperature;BMP_pressure;BME280_temperature;BME280_humidity;BME280_pressure;Samples;Min_cycle;Max_cycle;Signal;HPM_P1;HPM_P2
2024/02/22 00:02:04;;;;;;;2.67;1.27;;;;;;;;;;5073267;28;20024;-65
2024/02/22 00:04:30;;;;;;;2.25;0.90;;;;;;;;;;5069750;28;20027;-66
2024/02/22 00:06:55;;;;;;;3.53;1.00;;;;;;;;;;5074639;28;20032;-66
2024/02/22 00:09:21;;;;;;;1.17;0.60;;;;;;;;;;5071115;28;20033;-66
2024/02/22 00:11:47;;;;;;;2.05;0.60;;;;;;;;;;5068596;28;20507;-66
2024/02/22 00:14:14;;;;;;;0.50;0.40;;;;;;;;;;5069426;28;20530;-66
2024/02/22 00:16:40;;;;;;;0.50;0.50;;;;;;;;;;5069443;28;20024;-66
2024/02/22 00:19:06;;;;;;;1.92;0.70;;;;;;;;;;5069570;28;20485;-66
2024/02/22 00:21:32;;;;;;;0.40;0.30;;;;;;;;;;5067819;28;20055;-66
2024/02/22 00:23:58;;;;;;;0.50;0.40;;;;;;;;;;5067188;28;20105;-66
2024/02/22 00:26:25;;;;;;;0.40;0.40;;;;;;;;;;5067222;28;20032;-64
2024/02/22 00:28:51;;;;;;;2.05;0.52;;;;;;;;;;5065308;28;20537;-66
2024/02/22 00:31:17;;;;;;;0.60;0.40;;;;;;;;;;5067118;28;20112;-66
2024/02/22 00:33:45;;;;;;;0.70;0.43;;;;;;;;;;5069962;28;20490;-65
2024/02/22 00:36:11;;;;;;;0.70;0.30;;;;;;;;;;5069892;28;20083;-66
2024/02/22 00:38:37;;;;;;;0.30;0.30;;;;;;;;;;5069281;28;20060;-66
2024/02/22 00:41:04;;;;;;;0.47;0.47;;;;;;;;;;5066610;28;20032;-65
2024/02/22 00:43:30;;;;;;;0.80;0.47;;;;;;;;;;5069747;28;20022;-66
2024/02/22 00:45:56;;;;;;;0.47;0.40;;;;;;;;;;5068999;28;20436;-65
2024/02/22 00:48:22;;;;;;;0.55;0.40;;;;;;;;;;5051292;28;20482;-66
2024/02/22 00:50:48;;;;;;;0.70;0.40;;;;;;;;;;5051982;28;20425;-66
2024/02/22 00:53:15;;;;;;;0.50;0.50;;;;;;;;;;5055053;28;20047;-66
2024/02/22 00:55:41;;;;;;;0.45;0.38;;;;;;;;;;5051724;28;20737;-66
2024/02/22 00:58:07;;;;;;;0.47;0.40;;;;;;;;;;5064966;28;20055;-66
2024/02/22 01:00:33;;;;;;;0.98;0.50;;;;;;;;;;5073379;28;20056;-67
2024/02/22 01:02:59;;;;;;;0.30;0.30;;;;;;;;;;5076006;28;20032;-67
2024/02/22 01:05:26;;;;;;;0.60;0.50;;;;;;;;;;5072479;28;20045;-66
2024/02/22 01:07:52;;;;;;;0.88;0.50;;;;;;;;;;5073131;28;20027;-68
2024/02/22 01:10:18;;;;;;;1.13;0.57;;;;;;;;;;5070556;28;20025;-68
2024/02/22 01:12:44;;;;;;;0.60;0.30;;;;;;;;;;5075202;28;20482;-68
2024/02/22 01:15:10;;;;;;;8.35;0.60;;;;;;;;;;5074523;28;20025;-67
2024/02/22 01:17:36;;;;;;;2.53;0.40;;;;;;;;;;5074083;28;20031;-67
2024/02/22 01:20:04;;;;;;;0.50;0.47;;;;;;;;;;5074620;28;20040;-67
2024/02/22 01:22:30;;;;;;;1.23;0.50;;;;;;;;;;5073405;28;20024;-67
2024/02/22 01:24:56;;;;;;;1.95;0.70;;;;;;;;;;5071787;28;20045;-67
2024/02/22 01:27:22;;;;;;;1.58;0.70;;;;;;;;;;5075841;28;20028;-67
2024/02/22 01:29:48;;;;;;;0.50;0.50;;;;;;;;;;5070221;28;20027;-66
2024/02/22 01:32:13;;;;;;;0.30;0.30;;;;;;;;;;5068326;28;20020;-67
2024/02/22 01:34:40;;;;;;;0.52;0.47;;;;;;;;;;5069079;28;20016;-67
2024/02/22 01:37:07;;;;;;;0.85;0.43;;;;;;;;;;5075232;28;20009;-67
2024/02/22 01:39:34;;;;;;;0.30;0.30;;;;;;;;;;5070665;28;20016;-67
2024/02/22 01:42:00;;;;;;;1.23;0.30;;;;;;;;;;5075815;28;20089;-67
2024/02/22 01:44:29;;;;;;;3.50;0.45;;;;;;;;;;5069632;28;20150;-67
2024/02/22 01:46:56;;;;;;;0.60;0.50;;;;;;;;;;5071171;28;20078;-67
2024/02/22 01:49:22;;;;;;;1.05;0.50;;;;;;;;;;5071455;28;20478;-67
2024/02/22 01:51:48;;;;;;;0.60;0.40;;;;;;;;;;5070294;28;20031;-67
2024/02/22 01:54:14;;;;;;;5.47;0.55;;;;;;;;;;5075404;28;20107;-66
2024/02/22 01:56:40;;;;;;;1.05;0.43;;;;;;;;;;5071363;28;20025;-67
2024/02/22 01:59:06;;;;;;;0.30;0.30;;;;;;;;;;5072392;28;20044;-68
2024/02/22 02:01:34;;;;;;;0.57;0.57;;;;;;;;;;5073936;28;20056;-67
2024/02/22 02:04:00;;;;;;;1.10;0.60;;;;;;;;;;5071357;28;20023;-68
2024/02/22 02:06:26;;;;;;;1.35;0.32;;;;;;;;;;5065820;28;20081;-67
2024/02/22 02:08:52;;;;;;;0.35;0.32;;;;;;;;;;5069554;28;20029;-67
2024/02/22 02:11:18;;;;;;;0.22;0.22;;;;;;;;;;5066221;28;20020;-67
2024/02/22 02:13:44;;;;;;;6.05;0.60;;;;;;;;;;5072918;28;20028;-67
2024/02/22 02:16:10;;;;;;;0.70;0.68;;;;;;;;;;5071243;28;20108;-66
2024/02/22 02:18:36;;;;;;;0.88;0.50;;;;;;;;;;5072854;28;20028;-67
2024/02/22 02:21:10;;;;;;;3.92;0.80;;;;;;;;;;5072219;28;20040;-67
2024/02/22 02:23:51;;;;;;;5.15;1.63;;;;;;;;;;5072386;28;20089;-67
2024/02/22 02:26:17;;;;;;;5.30;1.17;;;;;;;;;;5062627;28;20385;-66
2024/02/22 02:28:43;;;;;;;2.47;0.60;;;;;;;;;;5076801;28;20024;-66
2024/02/22 02:31:09;;;;;;;1.85;0.40;;;;;;;;;;5071677;28;20109;-66
2024/02/22 02:33:35;;;;;;;2.80;0.85;;;;;;;;;;5072053;28;20111;-67
2024/02/22 02:36:01;;;;;;;5.72;1.30;;;;;;;;;;5071677;28;20051;-67
2024/02/22 02:38:27;;;;;;;3.15;1.27;;;;;;;;;;5077634;28;20029;-67
2024/02/22 02:40:53;;;;;;;5.60;1.88;;;;;;;;;;5072021;28;20036;-67
2024/02/22 02:43:19;;;;;;;4.93;1.08;;;;;;;;;;5069946;28;20439;-68
2024/02/22 02:45:45;;;;;;;8.07;1.23;;;;;;;;;;5067940;28;20948;-67
2024/02/22 02:48:11;;;;;;;2.55;0.88;;;;;;;;;;5071293;28;20561;-66
2024/02/22 02:50:37;;;;;;;3.45;1.00;;;;;;;;;;5076152;28;20029;-68
2024/02/22 02:53:03;;;;;;;1.95;0.70;;;;;;;;;;5068600;28;20040;-68
2024/02/22 02:55:29;;;;;;;4.15;1.13;;;;;;;;;;5051448;28;20437;-67
2024/02/22 02:57:55;;;;;;;1.45;0.60;;;;;;;;;;5071567;28;20056;-68
2024/02/22 03:00:21;;;;;;;0.30;0.30;;;;;;;;;;5068454;28;20029;-68
2024/02/22 03:02:47;;;;;;;1.00;0.60;;;;;;;;;;5067664;28;20078;-67
2024/02/22 03:05:13;;;;;;;2.92;0.40;;;;;;;;;;5067518;28;20028;-67
2024/02/22 03:07:39;;;;;;;0.52;0.25;;;;;;;;;;5065970;28;20396;-68
2024/02/22 03:10:05;;;;;;;0.43;0.30;;;;;;;;;;5070843;28;20060;-68
2024/02/22 03:12:31;;;;;;;1.02;0.30;;;;;;;;;;5073430;28;20035;-68
2024/02/22 03:14:57;;;;;;;0.28;0.28;;;;;;;;;;5068719;28;20033;-68
2024/02/22 03:17:24;;;;;;;0.47;0.40;;;;;;;;;;5066097;28;20036;-68
2024/02/22 03:19:50;;;;;;;1.60;0.30;;;;;;;;;;5070520;28;20390;-72
2024/02/22 03:22:16;;;;;;;0.73;0.40;;;;;;;;;;5072120;28;20398;-68
2024/02/22 03:24:42;;;;;;;1.20;0.30;;;;;;;;;;5065138;28;20032;-68
2024/02/22 03:27:10;;;;;;;1.35;0.30;;;;;;;;;;5069323;28;20028;-68
2024/02/22 03:29:37;;;;;;;2.15;0.35;;;;;;;;;;5068360;28;20016;-68
2024/02/22 03:32:03;;;;;;;1.10;0.57;;;;;;;;;;5069912;28;20494;-68
2024/02/22 03:34:29;;;;;;;1.65;0.40;;;;;;;;;;5067801;28;20081;-68
2024/02/22 03:36:56;;;;;;;4.57;0.30;;;;;;;;;;5064557;28;20028;-68
2024/02/22 03:39:22;;;;;;;2.83;0.30;;;;;;;;;;5072652;28;20028;-68
2024/02/22 03:41:48;;;;;;;5.25;0.35;;;;;;;;;;5073188;28;20029;-67
2024/02/22 03:44:17;;;;;;;0.63;0.20;;;;;;;;;;5069440;28;20037;-67
2024/02/22 03:46:52;;;;;;;2.72;0.20;;;;;;;;;;5068835;28;20070;-67
2024/02/22 03:49:18;;;;;;;1.08;0.20;;;;;;;;;;5074438;28;20402;-67
2024/02/22 03:51:44;;;;;;;0.38;0.25;;;;;;;;;;5066446;28;20031;-68
2024/02/22 03:54:09;;;;;;;0.28;0.25;;;;;;;;;;5064361;28;20446;-68
2024/02/22 03:56:36;;;;;;;0.30;0.30;;;;;;;;;;5063269;28;20086;-68
2024/02/22 03:59:02;;;;;;;3.30;0.20;;;;;;;;;;5068719;28;20502;-68
2024/02/22 04:01:30;;;;;;;0.55;0.38;;;;;;;;;;5068602;28;20028;-68
2024/02/22 04:03:56;;;;;;;0.20;0.20;;;;;;;;;;5072998;28;20028;-68
2024/02/22 04:06:22;;;;;;;0.25;0.15;;;;;;;;;;5070048;28;20113;-67
2024/02/22 04:08:48;;;;;;;4.63;0.30;;;;;;;;;;5066818;28;20016;-67
2024/02/22 04:11:14;;;;;;;0.43;0.30;;;;;;;;;;5064943;28;20386;-66
2024/02/22 04:13:40;;;;;;;0.20;0.20;;;;;;;;;;5070061;28;20064;-68
2024/02/22 04:16:06;;;;;;;0.30;0.30;;;;;;;;;;5063482;28;20087;-67
2024/02/22 04:18:32;;;;;;;1.13;0.22;;;;;;;;;;5072875;28;20017;-67
2024/02/22 04:20:58;;;;;;;0.32;0.20;;;;;;;;;;5065222;28;20490;-68
2024/02/22 04:23:24;;;;;;;0.20;0.20;;;;;;;;;;5065993;28;20028;-68
2024/02/22 04:25:50;;;;;;;1.98;0.20;;;;;;;;;;5072003;28;20040;-67
2024/02/22 04:28:18;;;;;;;4.28;0.40;;;;;;;;;;5070474;28;20197;-67
2024/02/22 04:30:45;;;;;;;0.52;0.30;;;;;;;;;;5068910;28;20024;-67
2024/02/22 04:33:12;;;;;;;0.57;0.40;;;;;;;;;;5072965;28;20532;-68
2024/02/22 04:35:38;;;;;;;0.40;0.30;;;;;;;;;;5069886;28;20035;-67
2024/02/22 04:38:04;;;;;;;0.85;0.30;;;;;;;;;;5074596;28;20681;-68
2024/02/22 04:40:30;;;;;;;2.70;0.40;;;;;;;;;;5071437;28;20397;-67
2024/02/22 04:42:57;;;;;;;1.52;1.15;;;;;;;;;;5075383;28;20437;-67
2024/02/22 04:45:23;;;;;;;0.52;0.35;;;;;;;;;;5053241;28;20024;-67
2024/02/22 04:47:50;;;;;;;3.80;0.70;;;;;;;;;;5074333;28;20108;-68
2024/02/22 04:50:16;;;;;;;3.38;0.70;;;;;;;;;;5073079;28;20048;-66
2024/02/22 04:52:43;;;;;;;4.20;0.60;;;;;;;;;;5071203;28;20035;-67
2024/02/22 04:55:09;;;;;;;0.63;0.32;;;;;;;;;;5070222;28;20025;-67
2024/02/22 04:57:35;;;;;;;2.83;0.40;;;;;;;;;;5079106;28;20059;-67
2024/02/22 05:00:04;;;;;;;1.00;0.30;;;;;;;;;;5074041;28;20024;-67
2024/02/22 05:02:30;;;;;;;0.93;0.65;;;;;;;;;;5075824;28;20021;-66
2024/02/22 05:04:56;;;;;;;0.85;0.20;;;;;;;;;;5072070;28;20181;-66
2024/02/22 05:07:22;;;;;;;2.65;0.60;;;;;;;;;;5065319;28;20012;-66
2024/02/22 05:09:48;;;;;;;3.17;0.50;;;;;;;;;;5070000;28;20021;-66
2024/02/22 05:12:14;;;;;;;1.73;0.40;;;;;;;;;;5074577;28;20147;-66
2024/02/22 05:14:44;;;;;;;0.70;0.40;;;;;;;;;;5075695;28;20024;-66
2024/02/22 05:17:10;;;;;;;0.95;0.50;;;;;;;;;;5070244;28;20035;-66
2024/02/22 05:19:36;;;;;;;2.35;0.40;;;;;;;;;;5071364;28;21182;-66
2024/02/22 05:22:02;;;;;;;0.63;0.40;;;;;;;;;;5077912;28;20409;-66
2024/02/22 05:24:29;;;;;;;0.47;0.45;;;;;;;;;;5068545;28;20028;-66
2024/02/22 05:26:55;;;;;;;2.20;0.63;;;;;;;;;;5063804;28;20021;-66
2024/02/22 05:29:21;;;;;;;0.40;0.38;;;;;;;;;;5073375;28;20024;-65
2024/02/22 05:31:49;;;;;;;2.10;0.70;;;;;;;;;;5075725;28;20040;-65
2024/02/22 05:34:14;;;;;;;1.52;0.50;;;;;;;;;;5069202;28;20067;-66
2024/02/22 05:36:40;;;;;;;3.05;0.40;;;;;;;;;;5069702;28;20048;-65
2024/02/22 05:39:07;;;;;;;2.65;0.43;;;;;;;;;;5069335;28;20078;-66
2024/02/22 05:41:34;;;;;;;0.63;0.30;;;;;;;;;;5071358;28;20203;-66
2024/02/22 05:44:00;;;;;;;0.60;0.30;;;;;;;;;;5073221;28;20107;-71
2024/02/22 05:46:26;;;;;;;1.75;0.40;;;;;;;;;;5071069;28;20116;-66
2024/02/22 05:48:52;;;;;;;1.35;0.65;;;;;;;;;;5072355;28;20107;-67
2024/02/22 05:51:18;;;;;;;0.85;0.50;;;;;;;;;;5076458;28;20029;-65
2024/02/22 05:53:44;;;;;;;2.00;0.85;;;;;;;;;;5073503;28;20048;-66
2024/02/22 05:56:10;;;;;;;7.82;0.82;;;;;;;;;;5072552;28;20037;-67
2024/02/22 05:58:36;;;;;;;1.33;0.80;;;;;;;;;;5071109;28;20028;-65
2024/02/22 06:01:02;;;;;;;4.03;1.10;;;;;;;;;;5073543;28;20048;-64
2024/02/22 06:03:28;;;;;;;2.70;1.35;;;;;;;;;;5068176;28;20024;-66
2024/02/22 06:05:54;;;;;;;4.25;1.20;;;;;;;;;;5068026;28;20798;-66
2024/02/22 06:08:20;;;;;;;1.65;1.20;;;;;;;;;;5050571;28;20032;-64
2024/02/22 06:10:46;;;;;;;10.80;1.40;;;;;;;;;;5052331;28;20032;-66
2024/02/22 06:13:12;;;;;;;3.67;1.40;;;;;;;;;;5072453;28;20095;-67
2024/02/22 06:15:38;;;;;;;2.15;1.02;;;;;;;;;;5068441;28;20024;-66
2024/02/22 06:18:04;;;;;;;3.22;0.80;;;;;;;;;;5068059;28;20032;-66
2024/02/22 06:20:31;;;;;;;2.35;0.90;;;;;;;;;;5068399;28;20155;-66
2024/02/22 06:22:59;;;;;;;3.72;0.93;;;;;;;;;;5068487;28;20379;-66
2024/02/22 06:25:25;;;;;;;2.65;0.88;;;;;;;;;;5073462;28;20391;-66
2024/02/22 06:27:51;;;;;;;2.92;1.15;;;;;;;;;;5056623;28;20028;-61
2024/02/22 06:30:18;;;;;;;6.63;0.80;;;;;;;;;;5076040;28;20028;-61
2024/02/22 06:32:44;;;;;;;2.75;0.60;;;;;;;;;;5076369;28;20025;-61
2024/02/22 06:35:11;;;;;;;0.95;0.73;;;;;;;;;;5068773;28;20024;-60
2024/02/22 06:37:37;;;;;;;0.88;0.50;;;;;;;;;;5074627;28;20521;-61
2024/02/22 06:40:07;;;;;;;1.02;0.50;;;;;;;;;;5069886;28;20576;-60
2024/02/22 06:42:33;;;;;;;3.45;0.77;;;;;;;;;;5050007;28;20442;-61
2024/02/22 06:44:59;;;;;;;1.30;0.50;;;;;;;;;;5062400;28;20100;-61
2024/02/22 06:47:25;;;;;;;2.13;0.60;;;;;;;;;;5063347;28;20534;-61
2024/02/22 06:49:51;;;;;;;4.40;0.43;;;;;;;;;;5064309;28;20029;-60
2024/02/22 06:52:17;;;;;;;4.50;0.60;;;;;;;;;;5062897;28;20052;-62
2024/02/22 06:54:43;;;;;;;1.42;0.60;;;;;;;;;;5068080;28;20040;-61
2024/02/22 06:57:09;;;;;;;1.27;0.50;;;;;;;;;;5066441;28;20545;-59
2024/02/22 06:59:35;;;;;;;2.28;0.50;;;;;;;;;;5074268;28;20064;-60
2024/02/22 07:02:01;;;;;;;5.75;0.80;;;;;;;;;;5066632;28;20028;-61
2024/02/22 07:04:27;;;;;;;1.67;0.70;;;;;;;;;;5069214;28;20040;-61
2024/02/22 07:06:53;;;;;;;2.63;0.30;;;;;;;;;;5072293;28;20032;-61
2024/02/22 07:09:19;;;;;;;7.15;0.98;;;;;;;;;;5068578;28;20029;-61
2024/02/22 07:11:45;;;;;;;2.17;0.65;;;;;;;;;;5070388;28;20016;-61
2024/02/22 07:14:11;;;;;;;2.75;0.50;;;;;;;;;;5066891;28;20042;-60
2024/02/22 07:16:37;;;;;;;0.88;0.50;;;;;;;;;;5069847;28;20106;-61
2024/02/22 07:19:03;;;;;;;1.23;0.50;;;;;;;;;;5067231;28;20090;-60
2024/02/22 07:21:33;;;;;;;0.98;0.40;;;;;;;;;;5070408;28;20036;-60
2024/02/22 07:23:59;;;;;;;1.48;0.73;;;;;;;;;;5069365;28;20077;-60
2024/02/22 07:26:24;;;;;;;0.63;0.50;;;;;;;;;;5070686;28;20056;-61
2024/02/22 07:28:50;;;;;;;2.03;0.40;;;;;;;;;;5067384;28;20040;-60
2024/02/22 07:31:16;;;;;;;1.95;0.70;;;;;;;;;;5073328;28;20020;-61
2024/02/22 07:33:42;;;;;;;0.70;0.60;;;;;;;;;;5076630;28;20506;-62
2024/02/22 07:36:08;;;;;;;1.00;0.50;;;;;;;;;;5077997;28;20050;-61
2024/02/22 07:38:35;;;;;;;3.13;0.63;;;;;;;;;;5077320;28;20085;-62
2024/02/22 07:41:03;;;;;;;0.75;0.50;;;;;;;;;;5078980;28;20080;-61
2024/02/22 07:43:29;;;;;;;0.57;0.38;;;;;;;;;;5075196;28;20028;-60
2024/02/22 07:45:55;;;;;;;1.88;0.70;;;;;;;;;;5071333;28;20024;-61
2024/02/22 07:48:21;;;;;;;0.80;0.50;;;;;;;;;;5075982;28;20029;-62
2024/02/22 07:50:47;;;;;;;0.60;0.40;;;;;;;;;;5077422;28;20048;-62
2024/02/22 07:53:13;;;;;;;1.55;0.50;;;;;;;;;;5074115;28;20029;-62
2024/02/22 07:55:39;;;;;;;0.70;0.50;;;;;;;;;;5074271;28;20028;-61
2024/02/22 07:58:05;;;;;;;2.75;0.50;;;;;;;;;;5074421;28;20108;-61
2024/02/22 08:00:31;;;;;;;0.55;0.55;;;;;;;;;;5074684;28;20038;-60
2024/02/22 08:02:57;;;;;;;0.50;0.50;;;;;;;;;;5076544;28;20246;-60
2024/02/22 08:05:24;;;;;;;3.22;0.82;;;;;;;;;;5074955;28;20039;-61
2024/02/22 08:07:50;;;;;;;1.60;0.70;;;;;;;;;;5068433;28;20493;-61
2024/02/22 08:10:17;;;;;;;1.08;0.82;;;;;;;;;;5067141;28;20102;-60
2024/02/22 08:12:43;;;;;;;2.30;0.80;;;;;;;;;;5050505;28;20017;-61
2024/02/22 08:15:09;;;;;;;0.73;0.73;;;;;;;;;;5065823;28;20025;-61
2024/02/22 08:17:38;;;;;;;3.33;0.95;;;;;;;;;;5068997;28;20025;-61
2024/02/22 08:20:04;;;;;;;0.90;0.75;;;;;;;;;;5067262;28;20419;-61
2024/02/22 08:22:30;;;;;;;1.20;0.70;;;;;;;;;;5064343;28;21599;-61
2024/02/22 08:24:56;;;;;;;0.95;0.70;;;;;;;;;;5059125;28;20043;-61
2024/02/22 08:30:26;;;;;;;2.50;0.50;;;;;;;;;;5055740;28;20131;-58
2024/02/22 08:32:52;;;;;;;0.85;0.52;;;;;;;;;;5051913;28;20025;-60
2024/02/22 08:35:17;;;;;;;0.50;0.50;;;;;;;;;;5058429;28;20075;-59
2024/02/22 08:37:43;;;;;;;1.77;0.60;;;;;;;;;;5058660;28;20688;-61
2024/02/22 08:40:10;;;;;;;0.85;0.65;;;;;;;;;;5060188;28;20104;-61
2024/02/22 08:42:36;;;;;;;0.73;0.57;;;;;;;;;;5064029;28;20120;-60
2024/02/22 08:45:02;;;;;;;0.32;0.30;;;;;;;;;;5062859;28;20035;-61
2024/02/22 08:47:28;;;;;;;0.63;0.63;;;;;;;;;;5059738;28;20020;-60
2024/02/22 08:49:54;;;;;;;3.42;0.80;;;;;;;;;;5061092;28;20020;-60
2024/02/22 08:52:20;;;;;;;1.90;1.02;;;;;;;;;;5065008;28;20111;-59
2024/02/22 08:54:46;;;;;;;1.98;1.30;;;;;;;;;;5061807;28;20770;-59
2024/02/22 08:57:12;;;;;;;1.33;1.05;;;;;;;;;;5066567;28;20119;-61
2024/02/22 08:59:38;;;;;;;2.13;0.90;;;;;;;;;;5058928;28;20117;-61
2024/02/22 09:02:04;;;;;;;4.63;0.70;;;;;;;;;;5060637;28;20029;-60
2024/02/22 09:04:30;;;;;;;3.80;1.17;;;;;;;;;;5060862;28;20036;-60
2024/02/22 09:06:56;;;;;;;1.35;1.23;;;;;;;;;;5060482;28;20037;-60
2024/02/22 09:09:22;;;;;;;2.70;1.02;;;;;;;;;;5060787;28;20073;-59
2024/02/22 09:11:48;;;;;;;1.42;1.10;;;;;;;;;;5059497;28;20111;-58
2024/02/22 09:14:15;;;;;;;1.30;0.90;;;;;;;;;;5064331;28;20028;-60
2024/02/22 09:16:41;;;;;;;1.90;1.23;;;;;;;;;;5061188;28;20507;-59
2024/02/22 09:19:09;;;;;;;3.38;1.50;;;;;;;;;;5064141;28;20029;-59
2024/02/22 09:21:35;;;;;;;1.65;1.20;;;;;;;;;;5063833;28;20093;-58
2024/02/22 09:24:01;;;;;;;4.55;1.13;;;;;;;;;;5062611;28;20060;-60
2024/02/22 09:26:28;;;;;;;2.22;1.05;;;;;;;;;;5066132;28;20107;-60
2024/02/22 09:28:54;;;;;;;1.60;1.00;;;;;;;;;;5063707;28;20395;-61
2024/02/22 09:31:20;;;;;;;1.45;1.20;;;;;;;;;;5060077;28;20378;-60
2024/02/22 09:33:47;;;;;;;2.28;1.13;;;;;;;;;;5064039;28;20088;-61
2024/02/22 09:36:13;;;;;;;2.15;1.02;;;;;;;;;;5066946;28;20029;-61
2024/02/22 09:38:39;;;;;;;1.02;0.85;;;;;;;;;;5066769;28;20158;-61
2024/02/22 09:41:06;;;;;;;1.23;0.80;;;;;;;;;;5067690;28;20040;-60
2024/02/22 09:43:32;;;;;;;0.70;0.70;;;;;;;;;;5068809;28;20134;-60
2024/02/22 09:45:58;;;;;;;4.53;0.70;;;;;;;;;;5063971;28;20041;-60
2024/02/22 09:48:24;;;;;;;2.58;0.90;;;;;;;;;;5069895;28;20163;-58
2024/02/22 09:50:50;;;;;;;0.80;0.75;;;;;;;;;;5074049;28;20060;-60
2024/02/22 09:53:16;;;;;;;1.08;0.60;;;;;;;;;;5065830;28;20040;-60
2024/02/22 09:55:43;;;;;;;0.77;0.50;;;;;;;;;;5074679;28;20037;-59
2024/02/22 09:58:09;;;;;;;2.78;1.20;;;;;;;;;;5059160;28;20028;-59
2024/02/22 10:00:35;;;;;;;3.15;0.70;;;;;;;;;;5067012;28;20027;-60
2024/02/22 10:03:00;;;;;;;0.95;0.55;;;;;;;;;;5064820;28;20024;-59
2024/02/22 10:05:36;;;;;;;2.17;0.60;;;;;;;;;;5059931;28;20028;-61
2024/02/22 10:08:13;;;;;;;3.05;0.43;;;;;;;;;;5058789;28;20040;-59
2024/02/22 10:10:40;;;;;;;0.60;0.50;;;;;;;;;;5070932;28;20486;-59
2024/02/22 10:13:06;;;;;;;0.90;0.50;;;;;;;;;;5048162;28;20040;-61
2024/02/22 10:15:33;;;;;;;1.15;0.40;;;;;;;;;;5063949;28;20111;-60
2024/02/22 10:17:59;;;;;;;1.33;0.40;;;;;;;;;;5060714;28;20082;-59
2024/02/22 10:20:32;;;;;;;0.35;0.30;;;;;;;;;;5063632;28;20091;-59
2024/02/22 10:23:08;;;;;;;0.77;0.35;;;;;;;;;;5064641;28;20094;-60
2024/02/22 10:25:34;;;;;;;0.40;0.40;;;;;;;;;;5057744;28;20055;-58
2024/02/22 10:28:01;;;;;;;0.40;0.40;;;;;;;;;;5063007;28;20112;-60
2024/02/22 10:30:27;;;;;;;0.30;0.30;;;;;;;;;;5059334;28;20526;-57
2024/02/22 10:32:59;;;;;;;0.82;0.30;;;;;;;;;;5062222;28;20024;-56
2024/02/22 10:35:25;;;;;;;0.30;0.30;;;;;;;;;;5069583;28;20031;-59
2024/02/22 10:37:54;;;;;;;0.95;0.30;;;;;;;;;;5061454;28;20040;-61
2024/02/22 10:40:20;;;;;;;0.20;0.20;;;;;;;;;;5062399;28;20040;-59
2024/02/22 10:42:50;;;;;;;0.40;0.30;;;;;;;;;;5065007;28;20485;-60
2024/02/22 10:45:16;;;;;;;1.00;0.45;;;;;;;;;;5061421;28;20092;-60
2024/02/22 10:47:44;;;;;;;0.60;0.28;;;;;;;;;;5061662;28;20029;-60
2024/02/22 10:50:13;;;;;;;0.40;0.40;;;;;;;;;;5061344;28;20029;-59
2024/02/22 10:52:40;;;;;;;2.25;0.60;;;;;;;;;;5059908;28;20030;-60
2024/02/22 10:55:09;;;;;;;1.80;0.20;;;;;;;;;;5057549;28;20119;-59
2024/02/22 10:57:36;;;;;;;0.25;0.22;;;;;;;;;;5058755;28;20434;-59
2024/02/22 11:00:04;;;;;;;0.77;0.40;;;;;;;;;;5054870;28;20032;-59
2024/02/22 11:02:31;;;;;;;3.22;0.30;;;;;;;;;;5056747;28;20037;-57
2024/02/22 11:05:04;;;;;;;1.05;0.22;;;;;;;;;;5041545;28;20115;-60
2024/02/22 11:07:30;;;;;;;1.02;0.32;;;;;;;;;;5056736;28;20048;-60
2024/02/22 11:10:06;;;;;;;0.90;0.38;;;;;;;;;;5064833;28;20056;-59
2024/02/22 11:12:35;;;;;;;1.65;0.50;;;;;;;;;;5061148;28;20034;-60
2024/02/22 11:15:09;;;;;;;0.68;0.68;;;;;;;;;;5066761;28;20051;-59
2024/02/22 11:17:35;;;;;;;0.50;0.50;;;;;;;;;;5062727;28;20565;-60
2024/02/22 11:20:11;;;;;;;0.52;0.28;;;;;;;;;;5058599;28;20025;-59
2024/02/22 11:22:37;;;;;;;1.05;0.32;;;;;;;;;;5042199;28;20059;-61
2024/02/22 11:25:06;;;;;;;0.45;0.40;;;;;;;;;;5065276;28;20024;-60
2024/02/22 11:27:32;;;;;;;1.02;0.40;;;;;;;;;;5060186;28;20492;-59
2024/02/22 11:30:01;;;;;;;4.60;2.28;;;;;;;;;;5064624;28;20085;-60
2024/02/22 11:32:27;;;;;;;3.13;0.40;;;;;;;;;;5062836;28;20150;-61
2024/02/22 11:34:54;;;;;;;1.58;0.45;;;;;;;;;;5060058;28;20111;-58
2024/02/22 11:37:21;;;;;;;0.50;0.32;;;;;;;;;;5062954;28;20205;-57
2024/02/22 11:39:47;;;;;;;0.40;0.40;;;;;;;;;;5065678;28;20024;-59
2024/02/22 11:42:18;;;;;;;1.40;0.40;;;;;;;;;;5065143;28;20028;-59
2024/02/22 11:44:44;;;;;;;0.30;0.28;;;;;;;;;;5058082;28;20021;-60
2024/02/22 11:47:13;;;;;;;0.20;0.20;;;;;;;;;;5059823;28;20084;-60
2024/02/22 11:49:40;;;;;;;0.30;0.30;;;;;;;;;;5062562;28;20039;-60
2024/02/22 11:52:07;;;;;;;2.60;0.25;;;;;;;;;;5062735;28;20033;-60
2024/02/22 11:54:33;;;;;;;2.28;0.60;;;;;;;;;;5064497;28;20037;-60
2024/02/22 11:57:02;;;;;;;4.78;0.50;;;;;;;;;;5057605;28;20036;-60
2024/02/22 11:59:28;;;;;;;0.30;0.25;;;;;;;;;;5054678;28;20090;-59
2024/02/22 12:01:54;;;;;;;0.85;0.30;;;;;;;;;;5060619;28;20033;-60
2024/02/22 12:04:20;;;;;;;0.38;0.28;;;;;;;;;;5059428;28;20024;-56
2024/02/22 12:06:47;;;;;;;0.28;0.28;;;;;;;;;;5062490;28;20051;-60
2024/02/22 12:09:13;;;;;;;3.40;0.30;;;;;;;;;;5057555;28;20027;-60
2024/02/22 12:11:40;;;;;;;1.33;0.55;;;;;;;;;;5058446;28;20025;-58
2024/02/22 12:14:07;;;;;;;0.20;0.20;;;;;;;;;;5056027;28;20033;-59
2024/02/22 12:16:39;;;;;;;0.98;0.30;;;;;;;;;;5043292;28;20032;-59
2024/02/22 12:19:05;;;;;;;5.15;0.50;;;;;;;;;;5059436;28;20040;-59
2024/02/22 12:21:32;;;;;;;1.13;0.40;;;;;;;;;;5062070;28;20029;-59
2024/02/22 12:23:58;;;;;;;1.73;0.30;;;;;;;;;;5062171;28;20497;-60
2024/02/22 12:26:24;;;;;;;2.65;0.55;;;;;;;;;;5064852;28;20032;-59
2024/02/22 12:28:51;;;;;;;0.63;0.45;;;;;;;;;;5057991;28;20074;-60
2024/02/22 12:31:23;;;;;;;0.80;0.60;;;;;;;;;;5041414;28;20386;-60
2024/02/22 12:33:50;;;;;;;1.27;0.70;;;;;;;;;;5057851;28;20085;-56
2024/02/22 12:36:16;;;;;;;0.52;0.50;;;;;;;;;;5060611;28;20028;-58
2024/02/22 12:38:42;;;;;;;0.40;0.40;;;;;;;;;;5058132;28;20024;-58
2024/02/22 12:41:08;;;;;;;1.00;0.40;;;;;;;;;;5061038;28;20383;-59
2024/02/22 12:43:34;;;;;;;1.15;0.40;;;;;;;;;;5054902;28;20574;-57
2024/02/22 12:46:00;;;;;;;1.08;0.43;;;;;;;;;;5057285;28;20028;-58
2024/02/22 12:48:26;;;;;;;1.98;0.65;;;;;;;;;;5059010;28;20033;-57
2024/02/22 12:50:52;;;;;;;3.72;0.30;;;;;;;;;;5065654;28;20024;-58
2024/02/22 12:53:18;;;;;;;0.70;0.60;;;;;;;;;;5058932;28;20021;-58
2024/02/22 12:55:44;;;;;;;1.45;0.50;;;;;;;;;;5067530;28;20093;-57
2024/02/22 12:58:10;;;;;;;1.20;0.45;;;;;;;;;;5059087;28;20037;-57
2024/02/22 13:00:36;;;;;;;1.75;0.40;;;;;;;;;;5062820;28;20032;-58
2024/02/22 13:03:04;;;;;;;0.52;0.30;;;;;;;;;;5063536;28;20123;-57
2024/02/22 13:05:30;;;;;;;0.43;0.22;;;;;;;;;;5064587;28;20040;-58
2024/02/22 13:07:57;;;;;;;0.30;0.30;;;;;;;;;;5055057;28;20382;-58
2024/02/22 13:10:23;;;;;;;0.30;0.30;;;;;;;;;;5064286;28;20020;-58
2024/02/22 13:12:49;;;;;;;0.30;0.30;;;;;;;;;;5060880;28;20104;-57
2024/02/22 13:15:15;;;;;;;0.20;0.20;;;;;;;;;;5060618;28;20044;-58
2024/02/22 13:17:41;;;;;;;0.20;0.20;;;;;;;;;;5045294;28;20083;-57
2024/02/22 13:20:08;;;;;;;0.30;0.30;;;;;;;;;;5061534;28;20482;-58
2024/02/22 13:22:34;;;;;;;0.30;0.20;;;;;;;;;;5066083;28;20020;-58
2024/02/22 13:25:00;;;;;;;0.30;0.20;;;;;;;;;;5061538;28;20885;-58
2024/02/22 13:27:26;;;;;;;1.20;0.40;;;;;;;;;;5063895;28;20036;-57
2024/02/22 13:29:52;;;;;;;0.82;0.40;;;;;;;;;;5059289;28;20017;-57
2024/02/22 13:32:19;;;;;;;2.13;0.40;;;;;;;;;;5060813;28;20032;-59
2024/02/22 13:34:45;;;;;;;0.40;0.30;;;;;;;;;;5058664;28;20055;-59
2024/02/22 13:37:11;;;;;;;1.75;0.30;;;;;;;;;;5059434;28;20040;-58
2024/02/22 13:39:36;;;;;;;0.40;0.30;;;;;;;;;;5060704;28;20021;-59
2024/02/22 13:42:03;;;;;;;0.40;0.40;;;;;;;;;;5061661;28;20930;-57
2024/02/22 13:44:29;;;;;;;0.85;0.52;;;;;;;;;;5053289;28;20029;-59
2024/02/22 13:46:55;;;;;;;1.15;0.60;;;;;;;;;;5047675;28;20095;-55
2024/02/22 13:49:23;;;;;;;0.88;0.50;;;;;;;;;;5061813;28;20028;-57
2024/02/22 13:51:57;;;;;;;1.17;0.50;;;;;;;;;;5047181;28;20029;-57
2024/02/22 13:54:23;;;;;;;;;;;;;;;;;;5067096;28;20032;-57
2024/02/22 13:56:49;;;;;;;5.22;1.77;;;;;;;;;;5062646;28;20396;-57
2024/02/22 13:59:15;;;;;;;0.30;0.30;;;;;;;;;;5050808;28;20033;-59
2024/02/22 14:01:41;;;;;;;1.85;1.00;;;;;;;;;;5062634;28;20035;-61
2024/02/22 14:04:07;;;;;;;0.55;0.40;;;;;;;;;;5056431;28;20111;-59
2024/02/22 14:06:33;;;;;;;1.48;0.68;;;;;;;;;;5045148;28;20079;-61
2024/02/22 14:08:59;;;;;;;1.58;0.60;;;;;;;;;;5065020;28;20036;-57
2024/02/22 14:11:25;;;;;;;2.85;0.70;;;;;;;;;;5058171;28;20033;-58
2024/02/22 14:13:51;;;;;;;1.00;0.70;;;;;;;;;;5043518;28;20075;-59
2024/02/22 14:16:20;;;;;;;3.10;0.50;;;;;;;;;;5056453;28;20031;-58
2024/02/22 14:18:46;;;;;;;1.52;0.63;;;;;;;;;;5063970;28;20019;-59
2024/02/22 14:21:15;;;;;;;0.95;0.80;;;;;;;;;;5060582;28;20672;-60
2024/02/22 14:23:42;;;;;;;1.35;0.70;;;;;;;;;;5059722;28;20023;-60
2024/02/22 14:26:09;;;;;;;3.10;0.60;;;;;;;;;;5040916;28;20116;-59
2024/02/22 14:28:34;;;;;;;0.98;0.68;;;;;;;;;;5060012;28;20051;-60
2024/02/22 14:31:00;;;;;;;1.08;0.70;;;;;;;;;;5063143;28;20021;-61
2024/02/22 14:33:27;;;;;;;7.32;0.40;;;;;;;;;;5067739;28;20084;-61
2024/02/22 14:35:53;;;;;;;1.20;0.40;;;;;;;;;;5058577;28;20163;-59
2024/02/22 14:38:20;;;;;;;1.08;0.57;;;;;;;;;;5058082;28;20127;-61
2024/02/22 14:40:46;;;;;;;8.20;0.40;;;;;;;;;;5052672;28;20068;-61
2024/02/22 14:43:13;;;;;;;0.77;0.70;;;;;;;;;;5059055;28;20112;-61